sensor_id;sensor_type;location;lat;lon;timestamp;temperature;humidity
72320;SHT30;60269;52.502;16.732;2023-05-07T00:02:25;7.00;91.69
72320;SHT30;60269;52.502;16.732;2023-05-07T00:05:58;7.05;91.54
72320;SHT30;60269;52.502;16.732;2023-05-07T00:09:30;7.00;91.57
72320;SHT30;60269;52.502;16.732;2023-05-07T00:13:02;7.02;91.66
72320;SHT30;60269;52.502;16.732;2023-05-07T00:16:34;6.93;91.75
72320;SHT30;60269;52.502;16.732;2023-05-07T00:20:06;7.01;91.44
72320;SHT30;60269;52.502;16.732;2023-05-07T00:23:39;7.02;91.19
72320;SHT30;60269;52.502;16.732;2023-05-07T00:27:11;6.93;91.53
72320;SHT30;60269;52.502;16.732;2023-05-07T00:30:43;6.93;91.52
72320;SHT30;60269;52.502;16.732;2023-05-07T00:34:15;6.94;91.65
72320;SHT30;60269;52.502;16.732;2023-05-07T00:37:47;6.88;91.69
72320;SHT30;60269;52.502;16.732;2023-05-07T00:41:20;6.79;92.25
72320;SHT30;60269;52.502;16.732;2023-05-07T00:44:53;6.76;92.43
72320;SHT30;60269;52.502;16.732;2023-05-07T00:48:25;6.62;92.79
72320;SHT30;60269;52.502;16.732;2023-05-07T00:51:58;6.44;93.35
72320;SHT30;60269;52.502;16.732;2023-05-07T00:55:32;6.28;93.81
72320;SHT30;60269;52.502;16.732;2023-05-07T00:59:05;6.14;94.29
72320;SHT30;60269;52.502;16.732;2023-05-07T01:02:41;6.04;94.70
72320;SHT30;60269;52.502;16.732;2023-05-07T01:06:15;5.90;95.09
72320;SHT30;60269;52.502;16.732;2023-05-07T01:09:49;5.79;95.35
72320;SHT30;60269;52.502;16.732;2023-05-07T01:13:22;5.77;95.93
72320;SHT30;60269;52.502;16.732;2023-05-07T01:16:55;5.90;95.78
72320;SHT30;60269;52.502;16.732;2023-05-07T01:20:28;5.98;95.48
72320;SHT30;60269;52.502;16.732;2023-05-07T01:24:00;6.01;95.34
72320;SHT30;60269;52.502;16.732;2023-05-07T01:27:32;6.04;95.34
72320;SHT30;60269;52.502;16.732;2023-05-07T01:31:05;5.99;95.32
72320;SHT30;60269;52.502;16.732;2023-05-07T01:34:38;6.02;95.12
72320;SHT30;60269;52.502;16.732;2023-05-07T01:38:11;6.05;95.03
72320;SHT30;60269;52.502;16.732;2023-05-07T01:41:44;5.99;95.19
72320;SHT30;60269;52.502;16.732;2023-05-07T01:45:17;5.94;95.57
72320;SHT30;60269;52.502;16.732;2023-05-07T01:48:49;5.83;95.61
72320;SHT30;60269;52.502;16.732;2023-05-07T01:52:22;5.77;95.90
72320;SHT30;60269;52.502;16.732;2023-05-07T01:55:54;5.67;96.23
72320;SHT30;60269;52.502;16.732;2023-05-07T01:59:26;5.67;96.09
72320;SHT30;60269;52.502;16.732;2023-05-07T02:02:58;5.57;96.35
72320;SHT30;60269;52.502;16.732;2023-05-07T02:06:30;5.61;96.43
72320;SHT30;60269;52.502;16.732;2023-05-07T02:10:03;5.77;96.36
72320;SHT30;60269;52.502;16.732;2023-05-07T02:13:34;5.94;95.73
72320;SHT30;60269;52.502;16.732;2023-05-07T02:17:07;5.97;95.67
72320;SHT30;60269;52.502;16.732;2023-05-07T02:20:39;6.14;95.28
72320;SHT30;60269;52.502;16.732;2023-05-07T02:24:11;6.14;94.94
72320;SHT30;60269;52.502;16.732;2023-05-07T02:27:43;6.21;94.74
72320;SHT30;60269;52.502;16.732;2023-05-07T02:31:15;6.21;94.61
72320;SHT30;60269;52.502;16.732;2023-05-07T02:34:50;6.26;94.48
72320;SHT30;60269;52.502;16.732;2023-05-07T02:38:23;6.11;94.42
72320;SHT30;60269;52.502;16.732;2023-05-07T02:41:55;6.06;94.65
72320;SHT30;60269;52.502;16.732;2023-05-07T02:45:26;6.14;94.52
72320;SHT30;60269;52.502;16.732;2023-05-07T02:49:02;6.18;94.11
72320;SHT30;60269;52.502;16.732;2023-05-07T02:52:34;6.23;93.92
72320;SHT30;60269;52.502;16.732;2023-05-07T02:56:06;6.18;94.33
72320;SHT30;60269;52.502;16.732;2023-05-07T02:59:38;6.26;93.91
72320;SHT30;60269;52.502;16.732;2023-05-07T03:03:10;6.22;93.71
72320;SHT30;60269;52.502;16.732;2023-05-07T03:06:42;6.21;93.82
72320;SHT30;60269;52.502;16.732;2023-05-07T03:10:14;6.14;93.71
72320;SHT30;60269;52.502;16.732;2023-05-07T03:13:46;6.22;93.53
72320;SHT30;60269;52.502;16.732;2023-05-07T03:17:21;6.22;93.52
72320;SHT30;60269;52.502;16.732;2023-05-07T03:20:53;6.29;93.47
72320;SHT30;60269;52.502;16.732;2023-05-07T03:24:25;6.32;93.28
72320;SHT30;60269;52.502;16.732;2023-05-07T03:27:57;6.29;92.79
72320;SHT30;60269;52.502;16.732;2023-05-07T03:31:29;6.32;92.56
72320;SHT30;60269;52.502;16.732;2023-05-07T03:35:02;6.04;93.11
72320;SHT30;60269;52.502;16.732;2023-05-07T03:38:34;5.99;93.42
72320;SHT30;60269;52.502;16.732;2023-05-07T03:42:06;5.95;93.54
72320;SHT30;60269;52.502;16.732;2023-05-07T03:45:38;6.04;92.84
72320;SHT30;60269;52.502;16.732;2023-05-07T03:49:10;6.16;92.30
72320;SHT30;60269;52.502;16.732;2023-05-07T03:52:42;6.16;92.38
72320;SHT30;60269;52.502;16.732;2023-05-07T03:56:14;6.30;91.85
72320;SHT30;60269;52.502;16.732;2023-05-07T03:59:48;6.42;91.03
72320;SHT30;60269;52.502;16.732;2023-05-07T04:03:22;6.56;90.62
72320;SHT30;60269;52.502;16.732;2023-05-07T04:06:54;6.64;90.00
72320;SHT30;60269;52.502;16.732;2023-05-07T04:10:26;6.80;89.40
72320;SHT30;60269;52.502;16.732;2023-05-07T04:13:59;6.81;89.45
72320;SHT30;60269;52.502;16.732;2023-05-07T04:17:31;6.85;88.90
72320;SHT30;60269;52.502;16.732;2023-05-07T04:21:04;6.58;89.53
72320;SHT30;60269;52.502;16.732;2023-05-07T04:24:36;6.47;89.88
72320;SHT30;60269;52.502;16.732;2023-05-07T04:28:08;6.44;90.51
72320;SHT30;60269;52.502;16.732;2023-05-07T04:31:43;6.66;90.33
72320;SHT30;60269;52.502;16.732;2023-05-07T04:35:18;6.72;89.31
72320;SHT30;60269;52.502;16.732;2023-05-07T04:38:50;6.72;89.17
72320;SHT30;60269;52.502;16.732;2023-05-07T04:42:22;6.63;89.61
72320;SHT30;60269;52.502;16.732;2023-05-07T04:45:54;6.53;89.95
72320;SHT30;60269;52.502;16.732;2023-05-07T04:49:26;6.62;89.77
72320;SHT30;60269;52.502;16.732;2023-05-07T04:52:58;6.67;89.73
72320;SHT30;60269;52.502;16.732;2023-05-07T04:56:30;6.69;89.69
72320;SHT30;60269;52.502;16.732;2023-05-07T05:00:02;6.66;89.69
72320;SHT30;60269;52.502;16.732;2023-05-07T05:03:35;6.70;89.29
72320;SHT30;60269;52.502;16.732;2023-05-07T05:07:08;6.95;88.91
72320;SHT30;60269;52.502;16.732;2023-05-07T05:10:44;8.00;85.13
72320;SHT30;60269;52.502;16.732;2023-05-07T05:14:16;9.56;80.26
72320;SHT30;60269;52.502;16.732;2023-05-07T05:17:50;10.48;76.13
72320;SHT30;60269;52.502;16.732;2023-05-07T05:21:23;10.93;74.52
72320;SHT30;60269;52.502;16.732;2023-05-07T05:24:55;10.81;74.20
72320;SHT30;60269;52.502;16.732;2023-05-07T05:28:27;11.20;72.05
72320;SHT30;60269;52.502;16.732;2023-05-07T05:31:59;11.98;69.83
72320;SHT30;60269;52.502;16.732;2023-05-07T05:35:31;11.99;68.27
72320;SHT30;60269;52.502;16.732;2023-05-07T05:42:51;11.49;67.73
72320;SHT30;60269;52.502;16.732;2023-05-07T05:46:29;11.56;67.66
72320;SHT30;60269;52.502;16.732;2023-05-07T05:50:02;11.64;67.25
72320;SHT30;60269;52.502;16.732;2023-05-07T05:53:44;11.92;67.66
72320;SHT30;60269;52.502;16.732;2023-05-07T05:57:16;12.22;65.92
72320;SHT30;60269;52.502;16.732;2023-05-07T06:00:48;12.18;66.43
72320;SHT30;60269;52.502;16.732;2023-05-07T06:04:23;12.43;66.01
72320;SHT30;60269;52.502;16.732;2023-05-07T06:07:55;12.63;63.09
72320;SHT30;60269;52.502;16.732;2023-05-07T06:11:28;12.43;64.98
72320;SHT30;60269;52.502;16.732;2023-05-07T06:15:00;12.68;63.34
72320;SHT30;60269;52.502;16.732;2023-05-07T06:18:32;12.84;63.55
72320;SHT30;60269;52.502;16.732;2023-05-07T06:22:04;12.84;63.00
72320;SHT30;60269;52.502;16.732;2023-05-07T06:25:36;12.56;63.02
72320;SHT30;60269;52.502;16.732;2023-05-07T06:29:08;12.68;62.11
72320;SHT30;60269;52.502;16.732;2023-05-07T06:32:40;12.79;62.05
72320;SHT30;60269;52.502;16.732;2023-05-07T06:36:12;12.81;62.19
72320;SHT30;60269;52.502;16.732;2023-05-07T06:39:45;12.95;62.92
72320;SHT30;60269;52.502;16.732;2023-05-07T06:43:17;13.44;60.69
72320;SHT30;60269;52.502;16.732;2023-05-07T06:46:49;13.28;58.90
72320;SHT30;60269;52.502;16.732;2023-05-07T06:50:21;13.55;59.81
72320;SHT30;60269;52.502;16.732;2023-05-07T06:53:57;13.65;58.70
72320;SHT30;60269;52.502;16.732;2023-05-07T06:57:29;13.41;58.97
72320;SHT30;60269;52.502;16.732;2023-05-07T07:01:03;13.49;57.26
72320;SHT30;60269;52.502;16.732;2023-05-07T07:04:37;13.52;57.80
72320;SHT30;60269;52.502;16.732;2023-05-07T07:08:13;13.69;55.63
72320;SHT30;60269;52.502;16.732;2023-05-07T07:11:45;13.84;56.72
72320;SHT30;60269;52.502;16.732;2023-05-07T07:15:19;13.61;57.01
72320;SHT30;60269;52.502;16.732;2023-05-07T07:18:52;13.34;58.21
72320;SHT30;60269;52.502;16.732;2023-05-07T07:22:26;14.00;56.70
72320;SHT30;60269;52.502;16.732;2023-05-07T07:26:01;14.58;54.63
72320;SHT30;60269;52.502;16.732;2023-05-07T07:29:33;14.80;55.27
72320;SHT30;60269;52.502;16.732;2023-05-07T07:33:05;15.10;53.86
72320;SHT30;60269;52.502;16.732;2023-05-07T07:36:44;14.93;51.68
72320;SHT30;60269;52.502;16.732;2023-05-07T07:40:17;15.59;53.13
72320;SHT30;60269;52.502;16.732;2023-05-07T07:43:49;15.61;49.48
72320;SHT30;60269;52.502;16.732;2023-05-07T07:47:24;14.95;51.03
72320;SHT30;60269;52.502;16.732;2023-05-07T07:50:56;15.41;51.39
72320;SHT30;60269;52.502;16.732;2023-05-07T07:54:28;16.30;48.10
72320;SHT30;60269;52.502;16.732;2023-05-07T07:58:01;16.59;47.43
72320;SHT30;60269;52.502;16.732;2023-05-07T08:01:32;17.49;45.46
72320;SHT30;60269;52.502;16.732;2023-05-07T08:05:05;17.16;44.31
72320;SHT30;60269;52.502;16.732;2023-05-07T08:08:36;16.88;47.29
72320;SHT30;60269;52.502;16.732;2023-05-07T08:12:09;16.52;47.72
72320;SHT30;60269;52.502;16.732;2023-05-07T08:15:41;16.05;48.66
72320;SHT30;60269;52.502;16.732;2023-05-07T08:19:13;15.85;50.22
72320;SHT30;60269;52.502;16.732;2023-05-07T08:22:44;15.67;50.88
72320;SHT30;60269;52.502;16.732;2023-05-07T08:26:17;15.69;50.04
72320;SHT30;60269;52.502;16.732;2023-05-07T08:29:49;15.65;50.64
72320;SHT30;60269;52.502;16.732;2023-05-07T08:33:21;15.64;50.54
72320;SHT30;60269;52.502;16.732;2023-05-07T08:36:53;15.64;50.22
72320;SHT30;60269;52.502;16.732;2023-05-07T08:40:26;16.22;50.58
72320;SHT30;60269;52.502;16.732;2023-05-07T08:44:02;15.88;50.61
72320;SHT30;60269;52.502;16.732;2023-05-07T08:47:42;16.04;48.91
72320;SHT30;60269;52.502;16.732;2023-05-07T08:51:19;15.96;49.79
72320;SHT30;60269;52.502;16.732;2023-05-07T08:54:51;15.98;49.43
72320;SHT30;60269;52.502;16.732;2023-05-07T08:58:23;16.10;50.36
72320;SHT30;60269;52.502;16.732;2023-05-07T09:01:55;15.67;50.18
72320;SHT30;60269;52.502;16.732;2023-05-07T09:05:27;14.88;53.46
72320;SHT30;60269;52.502;16.732;2023-05-07T09:09:00;15.10;51.68
72320;SHT30;60269;52.502;16.732;2023-05-07T09:12:33;15.48;51.39
72320;SHT30;60269;52.502;16.732;2023-05-07T09:16:11;15.77;51.39
72320;SHT30;60269;52.502;16.732;2023-05-07T09:19:44;16.36;51.07
72320;SHT30;60269;52.502;16.732;2023-05-07T09:23:17;16.61;48.76
72320;SHT30;60269;52.502;16.732;2023-05-07T09:26:52;16.71;47.60
72320;SHT30;60269;52.502;16.732;2023-05-07T09:30:31;16.74;48.56
72320;SHT30;60269;52.502;16.732;2023-05-07T09:34:04;16.47;49.21
72320;SHT30;60269;52.502;16.732;2023-05-07T09:37:40;16.59;48.65
72320;SHT30;60269;52.502;16.732;2023-05-07T09:41:13;16.68;48.47
72320;SHT30;60269;52.502;16.732;2023-05-07T09:44:47;17.10;47.04
72320;SHT30;60269;52.502;16.732;2023-05-07T09:48:20;17.32;46.98
72320;SHT30;60269;52.502;16.732;2023-05-07T09:51:52;17.97;45.37
72320;SHT30;60269;52.502;16.732;2023-05-07T09:55:25;18.44;43.98
72320;SHT30;60269;52.502;16.732;2023-05-07T09:59:03;18.12;45.82
72320;SHT30;60269;52.502;16.732;2023-05-07T10:02:36;19.03;42.87
72320;SHT30;60269;52.502;16.732;2023-05-07T10:06:09;19.25;43.14
72320;SHT30;60269;52.502;16.732;2023-05-07T10:09:42;19.08;42.84
72320;SHT30;60269;52.502;16.732;2023-05-07T10:13:17;18.04;45.66
72320;SHT30;60269;52.502;16.732;2023-05-07T10:16:50;18.11;46.45
72320;SHT30;60269;52.502;16.732;2023-05-07T10:20:25;18.00;46.61
72320;SHT30;60269;52.502;16.732;2023-05-07T10:24:05;17.56;46.09
72320;SHT30;60269;52.502;16.732;2023-05-07T10:27:42;17.56;45.55
72320;SHT30;60269;52.502;16.732;2023-05-07T10:35:01;17.60;46.08
72320;SHT30;60269;52.502;16.732;2023-05-07T10:38:33;17.91;44.93
72320;SHT30;60269;52.502;16.732;2023-05-07T10:42:10;16.91;46.99
72320;SHT30;60269;52.502;16.732;2023-05-07T10:45:42;17.00;48.59
72320;SHT30;60269;52.502;16.732;2023-05-07T10:49:14;16.96;47.73
72320;SHT30;60269;52.502;16.732;2023-05-07T10:56:49;17.39;47.63
72320;SHT30;60269;52.502;16.732;2023-05-07T11:04:15;17.25;46.03
72320;SHT30;60269;52.502;16.732;2023-05-07T11:08:02;16.91;46.73
72320;SHT30;60269;52.502;16.732;2023-05-07T11:11:50;16.81;47.87
72320;SHT30;60269;52.502;16.732;2023-05-07T11:15:40;16.98;46.98
72320;SHT30;60269;52.502;16.732;2023-05-07T11:19:15;16.78;46.92
72320;SHT30;60269;52.502;16.732;2023-05-07T11:22:47;16.96;47.51
72320;SHT30;60269;52.502;16.732;2023-05-07T11:26:19;17.26;46.48
72320;SHT30;60269;52.502;16.732;2023-05-07T11:29:52;17.57;46.09
72320;SHT30;60269;52.502;16.732;2023-05-07T11:33:25;17.87;44.62
72320;SHT30;60269;52.502;16.732;2023-05-07T11:36:58;17.45;45.68
72320;SHT30;60269;52.502;16.732;2023-05-07T11:40:30;16.96;47.69
72320;SHT30;60269;52.502;16.732;2023-05-07T11:44:02;17.14;47.69
72320;SHT30;60269;52.502;16.732;2023-05-07T11:47:37;18.08;44.43
72320;SHT30;60269;52.502;16.732;2023-05-07T11:51:12;17.90;44.45
72320;SHT30;60269;52.502;16.732;2023-05-07T11:54:54;17.81;45.47
72320;SHT30;60269;52.502;16.732;2023-05-07T11:58:26;17.40;46.04
72320;SHT30;60269;52.502;16.732;2023-05-07T12:01:58;17.40;46.08
72320;SHT30;60269;52.502;16.732;2023-05-07T12:05:31;17.79;44.98
72320;SHT30;60269;52.502;16.732;2023-05-07T12:09:03;17.71;45.80
72320;SHT30;60269;52.502;16.732;2023-05-07T12:12:40;18.04;43.87
72320;SHT30;60269;52.502;16.732;2023-05-07T12:16:13;18.72;42.73
72320;SHT30;60269;52.502;16.732;2023-05-07T12:19:46;18.44;43.93
72320;SHT30;60269;52.502;16.732;2023-05-07T12:23:19;18.12;45.81
72320;SHT30;60269;52.502;16.732;2023-05-07T12:26:51;18.01;43.94
72320;SHT30;60269;52.502;16.732;2023-05-07T12:30:24;17.93;44.24
72320;SHT30;60269;52.502;16.732;2023-05-07T12:33:56;17.80;45.70
72320;SHT30;60269;52.502;16.732;2023-05-07T12:37:29;18.17;44.55
72320;SHT30;60269;52.502;16.732;2023-05-07T12:41:04;17.71;44.68
72320;SHT30;60269;52.502;16.732;2023-05-07T12:44:36;17.54;45.61
72320;SHT30;60269;52.502;16.732;2023-05-07T12:48:09;18.14;44.33
72320;SHT30;60269;52.502;16.732;2023-05-07T12:51:41;17.98;43.51
72320;SHT30;60269;52.502;16.732;2023-05-07T12:55:15;17.38;43.93
72320;SHT30;60269;52.502;16.732;2023-05-07T12:58:48;17.45;45.36
72320;SHT30;60269;52.502;16.732;2023-05-07T13:02:20;17.45;44.88
72320;SHT30;60269;52.502;16.732;2023-05-07T13:05:56;17.96;45.26
72320;SHT30;60269;52.502;16.732;2023-05-07T13:09:31;17.62;44.80
72320;SHT30;60269;52.502;16.732;2023-05-07T13:13:05;18.10;43.03
72320;SHT30;60269;52.502;16.732;2023-05-07T13:16:37;17.71;44.17
72320;SHT30;60269;52.502;16.732;2023-05-07T13:20:09;17.56;44.28
72320;SHT30;60269;52.502;16.732;2023-05-07T13:23:41;17.40;43.85
72320;SHT30;60269;52.502;16.732;2023-05-07T13:27:14;17.18;45.22
72320;SHT30;60269;52.502;16.732;2023-05-07T13:30:46;16.87;46.65
72320;SHT30;60269;52.502;16.732;2023-05-07T13:34:18;16.15;48.04
72320;SHT30;60269;52.502;16.732;2023-05-07T13:37:50;17.29;46.06
72320;SHT30;60269;52.502;16.732;2023-05-07T13:41:23;18.10;42.84
72320;SHT30;60269;52.502;16.732;2023-05-07T13:44:56;20.08;41.01
72320;SHT30;60269;52.502;16.732;2023-05-07T13:48:28;19.81;40.60
72320;SHT30;60269;52.502;16.732;2023-05-07T13:52:00;21.78;36.12
72320;SHT30;60269;52.502;16.732;2023-05-07T13:55:32;20.78;35.84
72320;SHT30;60269;52.502;16.732;2023-05-07T13:59:04;18.86;42.22
72320;SHT30;60269;52.502;16.732;2023-05-07T14:02:36;18.72;42.23
72320;SHT30;60269;52.502;16.732;2023-05-07T14:06:08;19.71;36.44
72320;SHT30;60269;52.502;16.732;2023-05-07T14:09:40;20.06;36.14
72320;SHT30;60269;52.502;16.732;2023-05-07T14:13:12;19.64;37.08
72320;SHT30;60269;52.502;16.732;2023-05-07T14:16:45;18.32;41.75
72320;SHT30;60269;52.502;16.732;2023-05-07T14:20:20;19.11;40.69
72320;SHT30;60269;52.502;16.732;2023-05-07T14:23:52;19.51;39.89
72320;SHT30;60269;52.502;16.732;2023-05-07T14:27:24;20.82;38.28
72320;SHT30;60269;52.502;16.732;2023-05-07T14:30:56;21.49;35.55
72320;SHT30;60269;52.502;16.732;2023-05-07T14:34:29;23.04;33.09
72320;SHT30;60269;52.502;16.732;2023-05-07T14:38:01;22.18;33.11
72320;SHT30;60269;52.502;16.732;2023-05-07T14:41:33;22.49;30.99
72320;SHT30;60269;52.502;16.732;2023-05-07T14:45:06;19.89;36.79
72320;SHT30;60269;52.502;16.732;2023-05-07T14:48:38;19.31;37.83
72320;SHT30;60269;52.502;16.732;2023-05-07T14:52:12;19.17;38.65
72320;SHT30;60269;52.502;16.732;2023-05-07T14:55:47;18.35;40.36
72320;SHT30;60269;52.502;16.732;2023-05-07T14:59:20;17.74;41.22
72320;SHT30;60269;52.502;16.732;2023-05-07T15:02:53;17.12;42.22
72320;SHT30;60269;52.502;16.732;2023-05-07T15:06:26;17.65;41.39
72320;SHT30;60269;52.502;16.732;2023-05-07T15:09:58;20.68;34.86
72320;SHT30;60269;52.502;16.732;2023-05-07T15:13:30;21.71;33.85
72320;SHT30;60269;52.502;16.732;2023-05-07T15:17:03;22.96;31.16
72320;SHT30;60269;52.502;16.732;2023-05-07T15:20:36;22.26;32.04
72320;SHT30;60269;52.502;16.732;2023-05-07T15:24:09;20.20;35.37
72320;SHT30;60269;52.502;16.732;2023-05-07T15:27:41;18.89;39.35
72320;SHT30;60269;52.502;16.732;2023-05-07T15:31:15;17.96;40.77
72320;SHT30;60269;52.502;16.732;2023-05-07T15:34:48;17.28;42.15
72320;SHT30;60269;52.502;16.732;2023-05-07T15:38:20;16.67;43.86
72320;SHT30;60269;52.502;16.732;2023-05-07T15:41:52;18.48;40.87
72320;SHT30;60269;52.502;16.732;2023-05-07T15:45:24;20.22;36.20
72320;SHT30;60269;52.502;16.732;2023-05-07T15:48:57;20.99;35.47
72320;SHT30;60269;52.502;16.732;2023-05-07T15:52:29;22.15;33.98
72320;SHT30;60269;52.502;16.732;2023-05-07T15:56:02;22.24;33.42
72320;SHT30;60269;52.502;16.732;2023-05-07T15:59:34;23.57;30.93
72320;SHT30;60269;52.502;16.732;2023-05-07T16:03:06;20.14;35.95
72320;SHT30;60269;52.502;16.732;2023-05-07T16:06:39;17.97;38.92
72320;SHT30;60269;52.502;16.732;2023-05-07T16:10:14;16.94;42.15
72320;SHT30;60269;52.502;16.732;2023-05-07T16:13:46;15.81;43.63
72320;SHT30;60269;52.502;16.732;2023-05-07T16:17:18;15.57;45.26
72320;SHT30;60269;52.502;16.732;2023-05-07T16:20:50;16.75;44.11
72320;SHT30;60269;52.502;16.732;2023-05-07T16:24:23;19.47;38.15
72320;SHT30;60269;52.502;16.732;2023-05-07T16:27:55;21.08;34.88
72320;SHT30;60269;52.502;16.732;2023-05-07T16:31:29;20.71;35.48
72320;SHT30;60269;52.502;16.732;2023-05-07T16:35:04;18.07;40.43
72320;SHT30;60269;52.502;16.732;2023-05-07T16:38:45;16.75;42.66
72320;SHT30;60269;52.502;16.732;2023-05-07T16:42:17;15.59;45.79
72320;SHT30;60269;52.502;16.732;2023-05-07T16:45:50;14.93;46.81
72320;SHT30;60269;52.502;16.732;2023-05-07T16:49:23;14.24;48.40
72320;SHT30;60269;52.502;16.732;2023-05-07T16:52:55;14.30;48.76
72320;SHT30;60269;52.502;16.732;2023-05-07T16:56:27;16.96;42.79
72320;SHT30;60269;52.502;16.732;2023-05-07T16:59:59;18.19;40.31
72320;SHT30;60269;52.502;16.732;2023-05-07T17:03:31;18.01;39.58
72320;SHT30;60269;52.502;16.732;2023-05-07T17:07:04;17.77;40.64
72320;SHT30;60269;52.502;16.732;2023-05-07T17:10:37;17.63;39.97
72320;SHT30;60269;52.502;16.732;2023-05-07T17:14:09;15.96;43.27
72320;SHT30;60269;52.502;16.732;2023-05-07T17:17:42;14.24;47.62
72320;SHT30;60269;52.502;16.732;2023-05-07T17:21:14;13.42;50.58
72320;SHT30;60269;52.502;16.732;2023-05-07T17:24:46;12.80;52.96
72320;SHT30;60269;52.502;16.732;2023-05-07T17:28:18;12.68;54.46
72320;SHT30;60269;52.502;16.732;2023-05-07T17:31:50;12.81;54.15
72320;SHT30;60269;52.502;16.732;2023-05-07T17:35:22;13.55;52.30
72320;SHT30;60269;52.502;16.732;2023-05-07T17:38:54;13.03;53.45
72320;SHT30;60269;52.502;16.732;2023-05-07T17:42:26;12.60;54.60
72320;SHT30;60269;52.502;16.732;2023-05-07T17:45:58;13.07;52.96
72320;SHT30;60269;52.502;16.732;2023-05-07T17:49:30;13.05;53.43
72320;SHT30;60269;52.502;16.732;2023-05-07T17:53:02;12.67;54.41
72320;SHT30;60269;52.502;16.732;2023-05-07T17:56:45;11.97;57.74
72320;SHT30;60269;52.502;16.732;2023-05-07T18:00:17;11.32;60.34
72320;SHT30;60269;52.502;16.732;2023-05-07T18:03:49;11.22;60.59
72320;SHT30;60269;52.502;16.732;2023-05-07T18:07:21;11.13;61.21
72320;SHT30;60269;52.502;16.732;2023-05-07T18:10:53;11.26;61.64
72320;SHT30;60269;52.502;16.732;2023-05-07T18:14:25;11.09;61.82
72320;SHT30;60269;52.502;16.732;2023-05-07T18:17:57;10.71;63.41
72320;SHT30;60269;52.502;16.732;2023-05-07T18:21:30;10.13;65.70
72320;SHT30;60269;52.502;16.732;2023-05-07T18:25:02;9.78;66.80
72320;SHT30;60269;52.502;16.732;2023-05-07T18:28:34;9.41;68.26
72320;SHT30;60269;52.502;16.732;2023-05-07T18:32:06;9.27;68.69
72320;SHT30;60269;52.502;16.732;2023-05-07T18:35:38;9.18;69.02
72320;SHT30;60269;52.502;16.732;2023-05-07T18:39:11;8.94;69.77
72320;SHT30;60269;52.502;16.732;2023-05-07T18:42:42;8.75;70.52
72320;SHT30;60269;52.502;16.732;2023-05-07T18:46:15;8.68;70.92
72320;SHT30;60269;52.502;16.732;2023-05-07T18:49:47;8.48;71.43
72320;SHT30;60269;52.502;16.732;2023-05-07T18:53:19;8.22;72.68
72320;SHT30;60269;52.502;16.732;2023-05-07T18:56:52;8.08;73.49
72320;SHT30;60269;52.502;16.732;2023-05-07T19:00:24;7.87;74.26
72320;SHT30;60269;52.502;16.732;2023-05-07T19:03:56;7.76;75.44
72320;SHT30;60269;52.502;16.732;2023-05-07T19:07:28;7.59;76.09
72320;SHT30;60269;52.502;16.732;2023-05-07T19:11:01;7.43;77.12
72320;SHT30;60269;52.502;16.732;2023-05-07T19:14:34;7.22;77.54
72320;SHT30;60269;52.502;16.732;2023-05-07T19:18:06;7.08;78.01
72320;SHT30;60269;52.502;16.732;2023-05-07T19:21:38;7.15;77.22
72320;SHT30;60269;52.502;16.732;2023-05-07T19:25:12;7.09;77.67
72320;SHT30;60269;52.502;16.732;2023-05-07T19:28:44;7.12;77.34
72320;SHT30;60269;52.502;16.732;2023-05-07T19:32:27;7.07;77.58
72320;SHT30;60269;52.502;16.732;2023-05-07T19:36:00;7.05;77.75
72320;SHT30;60269;52.502;16.732;2023-05-07T19:39:33;6.95;78.61
72320;SHT30;60269;52.502;16.732;2023-05-07T19:43:05;6.60;79.84
72320;SHT30;60269;52.502;16.732;2023-05-07T19:46:39;6.54;81.39
72320;SHT30;60269;52.502;16.732;2023-05-07T19:50:16;6.70;80.87
72320;SHT30;60269;52.502;16.732;2023-05-07T19:53:48;7.00;79.74
72320;SHT30;60269;52.502;16.732;2023-05-07T19:57:21;7.16;79.23
72320;SHT30;60269;52.502;16.732;2023-05-07T20:00:52;7.07;79.67
72320;SHT30;60269;52.502;16.732;2023-05-07T20:04:25;6.98;80.61
72320;SHT30;60269;52.502;16.732;2023-05-07T20:08:01;6.81;81.55
72320;SHT30;60269;52.502;16.732;2023-05-07T20:11:33;6.84;81.94
72320;SHT30;60269;52.502;16.732;2023-05-07T20:15:06;6.64;82.82
72320;SHT30;60269;52.502;16.732;2023-05-07T20:18:40;6.60;83.31
72320;SHT30;60269;52.502;16.732;2023-05-07T20:22:13;6.53;83.65
72320;SHT30;60269;52.502;16.732;2023-05-07T20:25:46;6.46;84.18
72320;SHT30;60269;52.502;16.732;2023-05-07T20:29:21;6.44;84.23
72320;SHT30;60269;52.502;16.732;2023-05-07T20:32:54;6.36;85.13
72320;SHT30;60269;52.502;16.732;2023-05-07T20:36:26;6.33;85.34
72320;SHT30;60269;52.502;16.732;2023-05-07T20:40:01;6.16;85.96
72320;SHT30;60269;52.502;16.732;2023-05-07T20:43:35;6.04;86.48
72320;SHT30;60269;52.502;16.732;2023-05-07T20:47:10;5.88;87.17
72320;SHT30;60269;52.502;16.732;2023-05-07T20:50:42;5.88;87.52
72320;SHT30;60269;52.502;16.732;2023-05-07T20:54:14;5.93;87.56
72320;SHT30;60269;52.502;16.732;2023-05-07T20:57:46;5.85;88.00
72320;SHT30;60269;52.502;16.732;2023-05-07T21:01:18;5.63;88.67
72320;SHT30;60269;52.502;16.732;2023-05-07T21:04:50;5.47;89.47
72320;SHT30;60269;52.502;16.732;2023-05-07T21:08:23;5.53;89.65
72320;SHT30;60269;52.502;16.732;2023-05-07T21:11:56;5.43;90.01
72320;SHT30;60269;52.502;16.732;2023-05-07T21:15:28;5.30;90.49
72320;SHT30;60269;52.502;16.732;2023-05-07T21:19:00;5.15;90.81
72320;SHT30;60269;52.502;16.732;2023-05-07T21:22:33;4.96;91.78
72320;SHT30;60269;52.502;16.732;2023-05-07T21:26:04;4.69;92.44
72320;SHT30;60269;52.502;16.732;2023-05-07T21:29:37;4.46;93.25
72320;SHT30;60269;52.502;16.732;2023-05-07T21:33:09;4.30;94.24
72320;SHT30;60269;52.502;16.732;2023-05-07T21:36:41;4.21;94.46
72320;SHT30;60269;52.502;16.732;2023-05-07T21:40:13;4.27;94.53
72320;SHT30;60269;52.502;16.732;2023-05-07T21:43:46;4.21;94.38
72320;SHT30;60269;52.502;16.732;2023-05-07T21:47:18;4.07;94.94
72320;SHT30;60269;52.502;16.732;2023-05-07T21:51:00;4.05;95.35
72320;SHT30;60269;52.502;16.732;2023-05-07T21:54:33;4.09;95.41
72320;SHT30;60269;52.502;16.732;2023-05-07T21:58:05;4.00;95.64
72320;SHT30;60269;52.502;16.732;2023-05-07T22:01:38;3.89;95.91
72320;SHT30;60269;52.502;16.732;2023-05-07T22:05:10;3.96;95.87
72320;SHT30;60269;52.502;16.732;2023-05-07T22:08:42;3.89;96.08
72320;SHT30;60269;52.502;16.732;2023-05-07T22:12:14;3.88;96.21
72320;SHT30;60269;52.502;16.732;2023-05-07T22:15:46;3.86;96.63
72320;SHT30;60269;52.502;16.732;2023-05-07T22:19:29;3.62;96.81
72320;SHT30;60269;52.502;16.732;2023-05-07T22:23:01;3.31;97.18
72320;SHT30;60269;52.502;16.732;2023-05-07T22:26:33;3.13;97.43
72320;SHT30;60269;52.502;16.732;2023-05-07T22:30:06;3.00;97.68